createdAt,value
2023-05-05T00:00:32.719Z,59.92
2023-05-05T00:01:35.602Z,60.09
2023-05-05T00:02:38.123Z,60.28
2023-05-05T00:03:40.672Z,60.28
2023-05-05T00:04:43.038Z,60.47
2023-05-05T00:05:45.233Z,60.50
2023-05-05T00:06:48.701Z,60.57
2023-05-05T00:07:50.986Z,60.59
2023-05-05T00:08:53.063Z,60.63
2023-05-05T00:09:55.209Z,60.87
2023-05-05T00:10:57.768Z,60.89
2023-05-05T00:12:00.235Z,60.92
2023-05-05T00:13:02.477Z,61.04
2023-05-05T00:14:04.675Z,61.06
2023-05-05T00:15:07.488Z,61.15
2023-05-05T00:16:09.786Z,61.09
2023-05-05T00:17:12.195Z,61.11
2023-05-05T00:18:15.089Z,61.01
2023-05-05T00:19:17.050Z,61.02
2023-05-05T00:20:23.670Z,61.02
2023-05-05T00:21:25.838Z,61.10
2023-05-05T00:22:29.834Z,61.10
2023-05-05T00:23:32.069Z,61.23
2023-05-05T00:24:34.181Z,61.23
2023-05-05T00:25:36.305Z,61.18
2023-05-05T00:26:38.644Z,61.20
2023-05-05T00:27:41.086Z,61.18
2023-05-05T00:28:43.727Z,61.18
2023-05-05T00:29:45.938Z,61.13
2023-05-05T00:30:48.527Z,61.08
2023-05-05T00:31:51.838Z,61.02
2023-05-05T00:32:55.333Z,61.07
2023-05-05T00:33:57.593Z,61.13
2023-05-05T00:34:59.603Z,61.15
2023-05-05T00:36:02.178Z,61.16
2023-05-05T00:37:04.248Z,61.21
2023-05-05T00:38:06.774Z,61.20
2023-05-05T00:39:08.920Z,61.39
2023-05-05T00:40:13.053Z,61.42
2023-05-05T00:41:15.157Z,61.43
2023-05-05T00:42:17.329Z,61.47
2023-05-05T00:43:19.659Z,61.47
2023-05-05T00:45:44.791Z,61.52
2023-05-05T00:46:47.280Z,61.56
2023-05-05T00:47:55.402Z,61.49
2023-05-05T00:48:57.932Z,61.42
2023-05-05T00:50:00.096Z,61.34
2023-05-05T00:51:03.192Z,61.33
2023-05-05T00:52:05.594Z,61.28
2023-05-05T00:53:08.319Z,61.25
2023-05-05T00:54:10.471Z,61.22
2023-05-05T00:55:12.727Z,61.19
2023-05-05T00:56:19.369Z,61.18
2023-05-05T00:57:21.658Z,61.21
2023-05-05T00:58:24.596Z,61.21
2023-05-05T00:59:27.923Z,61.24
2023-05-05T01:00:31.168Z,61.26
2023-05-05T01:01:33.612Z,61.36
2023-05-05T01:02:35.839Z,61.51
2023-05-05T01:03:38.827Z,61.60
2023-05-05T01:04:41.164Z,61.76
2023-05-05T01:07:02.472Z,62.08
2023-05-05T01:08:28.238Z,62.31
2023-05-05T01:10:07.290Z,62.32
2023-05-05T01:12:24.424Z,62.37
2023-05-05T01:13:42.129Z,62.46
2023-05-05T01:14:46.765Z,62.40
2023-05-05T01:17:18.172Z,62.53
2023-05-05T01:18:33.676Z,62.65
2023-05-05T01:19:39.690Z,62.74
2023-05-05T01:20:48.590Z,63.07
2023-05-05T01:21:54.750Z,63.18
2023-05-05T01:22:59.451Z,63.47
2023-05-05T01:24:14.408Z,63.76
2023-05-05T01:25:26.335Z,63.85
2023-05-05T01:27:01.324Z,64.02
2023-05-05T01:30:09.364Z,64.52
2023-05-05T01:31:37.080Z,64.98
2023-05-05T01:32:41.970Z,65.12
2023-05-05T01:33:47.817Z,65.25
2023-05-05T01:35:01.528Z,65.82
2023-05-05T01:36:11.115Z,66.59
2023-05-05T01:37:17.121Z,66.43
2023-05-05T01:38:21.821Z,66.47
2023-05-05T01:39:26.385Z,66.65
2023-05-05T01:40:30.682Z,66.55
2023-05-05T01:41:38.964Z,67.04
2023-05-05T01:42:42.061Z,66.92
2023-05-05T01:43:45.537Z,66.90
2023-05-05T01:44:48.237Z,66.91
2023-05-05T01:45:51.540Z,66.98
2023-05-05T01:46:54.250Z,67.13
2023-05-05T01:47:56.528Z,67.06
2023-05-05T01:48:59.603Z,67.43
2023-05-05T01:50:02.354Z,67.26
2023-05-05T01:51:07.701Z,67.74
2023-05-05T01:52:09.954Z,67.63
2023-05-05T01:53:12.371Z,67.95
2023-05-05T01:54:15.494Z,67.88
2023-05-05T01:55:18.468Z,67.85
2023-05-05T01:56:23.409Z,68.20
2023-05-05T01:57:25.481Z,67.94
2023-05-05T01:58:27.657Z,67.97
2023-05-05T01:59:29.826Z,67.89
2023-05-05T02:00:32.165Z,67.83
2023-05-05T02:01:38.705Z,67.77
2023-05-05T02:02:41.032Z,67.77
2023-05-05T02:03:43.326Z,67.63
2023-05-05T02:04:45.478Z,67.44
2023-05-05T02:05:47.637Z,67.33
2023-05-05T02:06:50.127Z,67.25
2023-05-05T02:07:54.578Z,67.17
2023-05-05T02:08:56.880Z,67.15
2023-05-05T02:10:00.647Z,67.20
2023-05-05T02:11:03.334Z,67.29
2023-05-05T02:12:08.453Z,67.35
2023-05-05T02:13:11.575Z,67.33
2023-05-05T02:14:13.861Z,67.34
2023-05-05T02:15:18.105Z,67.42
2023-05-05T02:16:20.316Z,67.68
2023-05-05T02:17:22.763Z,67.91
2023-05-05T02:18:25.356Z,67.86
2023-05-05T02:20:38.232Z,68.11
2023-05-05T02:21:40.355Z,68.13
2023-05-05T02:22:42.455Z,68.04
2023-05-05T02:23:45.971Z,67.98
2023-05-05T02:24:48.123Z,67.90
2023-05-05T02:25:52.714Z,67.83
2023-05-05T02:26:55.076Z,67.78
2023-05-05T02:27:57.076Z,67.74
2023-05-05T02:30:17.706Z,67.92
2023-05-05T02:31:20.315Z,68.01
2023-05-05T02:32:34.966Z,67.95
2023-05-05T02:33:37.767Z,67.90
2023-05-05T02:34:40.519Z,67.85
2023-05-05T02:35:44.522Z,67.90
2023-05-05T02:36:48.713Z,67.98
2023-05-05T02:37:53.299Z,67.86
2023-05-05T02:38:57.777Z,67.87
2023-05-05T02:40:03.689Z,67.92
2023-05-05T02:41:09.034Z,67.83
2023-05-05T02:42:14.870Z,67.82
2023-05-05T02:43:19.017Z,67.74
2023-05-05T02:44:23.237Z,67.71
2023-05-05T02:45:26.965Z,67.65
2023-05-05T02:46:29.175Z,67.52
2023-05-05T02:47:35.418Z,67.50
2023-05-05T02:48:38.727Z,67.48
2023-05-05T02:49:42.021Z,67.48
2023-05-05T02:50:44.763Z,67.46
2023-05-05T02:51:51.646Z,67.51
2023-05-05T02:52:55.934Z,67.49
2023-05-05T02:53:59.969Z,67.41
2023-05-05T02:55:06.284Z,67.29
2023-05-05T02:56:30.776Z,67.19
2023-05-05T02:59:07.671Z,67.01
2023-05-05T03:00:24.424Z,66.88
2023-05-05T03:01:53.176Z,66.85
2023-05-05T03:03:17.628Z,66.71
2023-05-05T03:04:31.162Z,66.70
2023-05-05T03:05:44.360Z,66.58
2023-05-05T03:06:48.816Z,66.39
2023-05-05T03:08:14.883Z,66.16
2023-05-05T03:09:35.761Z,66.11
2023-05-05T03:10:55.242Z,66.05
2023-05-05T03:12:07.416Z,65.95
2023-05-05T03:13:11.692Z,65.83
2023-05-05T03:14:18.092Z,65.83
2023-05-05T03:16:37.794Z,65.89
2023-05-05T03:17:41.544Z,65.92
2023-05-05T03:18:46.329Z,65.83
2023-05-05T03:19:48.650Z,65.92
2023-05-05T03:20:51.864Z,65.83
2023-05-05T03:21:54.522Z,65.85
2023-05-05T03:22:56.821Z,65.88
2023-05-05T03:23:58.819Z,65.78
2023-05-05T03:25:00.897Z,65.74
2023-05-05T03:26:03.493Z,65.86
2023-05-05T03:27:07.449Z,65.90
2023-05-05T03:28:11.541Z,65.95
2023-05-05T03:29:14.406Z,66.04
2023-05-05T03:30:16.804Z,66.09
2023-05-05T03:31:20.913Z,66.16
2023-05-05T03:32:25.713Z,66.15
2023-05-05T03:33:29.200Z,66.08
2023-05-05T03:34:33.253Z,66.05
2023-05-05T03:35:37.275Z,66.07
2023-05-05T03:36:41.611Z,65.99
2023-05-05T03:37:45.755Z,66.09
2023-05-05T03:38:48.628Z,66.11
2023-05-05T03:39:52.646Z,66.12
2023-05-05T03:40:56.479Z,66.10
2023-05-05T03:42:00.506Z,66.05
2023-05-05T03:43:04.549Z,65.98
2023-05-05T03:44:07.289Z,65.93
2023-05-05T03:45:12.885Z,65.91
2023-05-05T03:46:15.388Z,65.84
2023-05-05T03:47:18.191Z,65.84
2023-05-05T03:48:20.371Z,65.81
2023-05-05T03:49:24.413Z,66.09
2023-05-05T03:50:28.262Z,66.08
2023-05-05T03:51:30.921Z,66.09
2023-05-05T03:52:33.924Z,66.13
2023-05-05T03:53:37.401Z,66.18
2023-05-05T03:54:41.433Z,66.27
2023-05-05T03:55:43.531Z,66.37
2023-05-05T03:56:46.294Z,66.52
2023-05-05T03:57:48.502Z,67.15
2023-05-05T03:58:50.624Z,67.84
2023-05-05T03:59:53.816Z,67.82
2023-05-05T04:00:56.938Z,68.69
2023-05-05T04:02:00.027Z,69.38
2023-05-05T04:03:02.359Z,69.75
2023-05-05T04:04:05.489Z,70.36
2023-05-05T04:05:09.930Z,70.76
2023-05-05T04:06:12.510Z,70.76
2023-05-05T04:07:15.001Z,71.17
2023-05-05T04:08:17.988Z,71.22
2023-05-05T04:09:20.135Z,71.33
2023-05-05T04:10:24.504Z,72.27
2023-05-05T04:11:26.696Z,71.86
2023-05-05T04:12:29.516Z,72.17
2023-05-05T04:13:32.907Z,72.02
2023-05-05T04:14:35.070Z,72.07
2023-05-05T04:15:37.193Z,71.82
2023-05-05T04:16:42.571Z,71.79
2023-05-05T04:17:44.843Z,71.87
2023-05-05T04:18:47.491Z,71.89
2023-05-05T04:19:51.454Z,71.94
2023-05-05T04:20:54.161Z,71.85
2023-05-05T04:21:57.048Z,71.90
2023-05-05T04:22:59.259Z,71.83
2023-05-05T04:24:01.963Z,71.87
2023-05-05T04:25:08.011Z,72.08
2023-05-05T04:26:10.654Z,72.14
2023-05-05T04:27:12.944Z,72.20
2023-05-05T04:28:15.194Z,72.11
2023-05-05T04:29:18.047Z,71.66
2023-05-05T04:30:21.042Z,71.58
2023-05-05T04:31:23.516Z,71.55
2023-05-05T04:32:26.550Z,71.54
2023-05-05T04:33:28.789Z,71.58
2023-05-05T04:34:31.596Z,71.55
2023-05-05T04:35:34.431Z,71.62
2023-05-05T04:36:36.781Z,71.71
2023-05-05T04:37:40.451Z,71.25
2023-05-05T04:38:43.445Z,71.14
2023-05-05T04:39:46.592Z,71.11
2023-05-05T04:40:50.555Z,71.26
2023-05-05T04:41:54.108Z,71.29
2023-05-05T04:42:56.442Z,71.27
2023-05-05T04:43:59.915Z,71.13
2023-05-05T04:45:03.345Z,71.14
2023-05-05T04:46:06.449Z,71.31
2023-05-05T04:47:11.989Z,71.27
2023-05-05T04:48:14.181Z,71.29
2023-05-05T04:49:16.441Z,71.11
2023-05-05T04:50:20.817Z,71.06
2023-05-05T04:51:22.879Z,71.18
2023-05-05T04:52:25.952Z,71.24
2023-05-05T04:53:30.640Z,70.63
2023-05-05T04:54:35.154Z,70.34
2023-05-05T04:55:38.927Z,70.50
2023-05-05T04:56:41.332Z,70.54
2023-05-05T04:57:44.599Z,70.50
2023-05-05T04:58:46.889Z,70.26
2023-05-05T04:59:49.019Z,70.14
2023-05-05T05:00:51.470Z,70.06
2023-05-05T05:01:54.791Z,69.76
2023-05-05T05:02:58.938Z,69.93
2023-05-05T05:04:01.310Z,70.00
2023-05-05T05:05:08.012Z,70.07
2023-05-05T05:06:11.432Z,69.87
2023-05-05T05:07:13.343Z,69.89
2023-05-05T05:08:17.512Z,69.82
2023-05-05T05:09:19.907Z,69.58
2023-05-05T05:10:22.340Z,69.32
2023-05-05T05:11:24.618Z,69.14
2023-05-05T05:12:26.589Z,69.21
2023-05-05T05:13:28.692Z,68.82
2023-05-05T05:14:36.354Z,69.00
2023-05-05T05:15:38.725Z,69.02
2023-05-05T05:16:41.969Z,68.99
2023-05-05T05:17:46.210Z,68.39
2023-05-05T05:18:48.419Z,68.09
2023-05-05T05:19:50.652Z,67.72
2023-05-05T05:20:52.836Z,67.53
2023-05-05T05:21:55.398Z,67.48
2023-05-05T05:22:57.500Z,67.63
2023-05-05T05:24:00.516Z,67.76
2023-05-05T05:25:03.733Z,67.46
2023-05-05T05:26:06.575Z,67.50
2023-05-05T05:27:10.161Z,67.37
2023-05-05T05:28:14.663Z,67.31
2023-05-05T05:29:18.796Z,67.01
2023-05-05T05:30:23.106Z,66.77
2023-05-05T05:31:25.738Z,66.76
2023-05-05T05:32:28.975Z,66.86
2023-05-05T05:33:31.702Z,66.82
2023-05-05T05:34:34.985Z,66.62
2023-05-05T05:35:38.711Z,66.56
2023-05-05T05:36:41.791Z,65.97
2023-05-05T05:37:44.103Z,65.94
2023-05-05T05:38:46.509Z,65.54
2023-05-05T05:39:51.938Z,65.31
2023-05-05T05:40:54.639Z,65.05
2023-05-05T05:41:57.381Z,64.18
2023-05-05T05:43:01.036Z,63.44
2023-05-05T05:44:04.022Z,63.12
2023-05-05T05:45:09.893Z,63.26
2023-05-05T05:46:18.984Z,63.35
2023-05-05T05:47:22.232Z,62.66
2023-05-05T05:48:25.315Z,61.58
2023-05-05T05:49:27.489Z,61.50
2023-05-05T05:50:30.944Z,62.31
2023-05-05T05:51:34.009Z,62.47
2023-05-05T05:52:36.910Z,62.15
2023-05-05T05:53:40.513Z,62.64
2023-05-05T05:54:43.244Z,62.02
2023-05-05T05:55:46.636Z,61.49
2023-05-05T05:56:49.587Z,61.48
2023-05-05T05:57:52.095Z,61.88
2023-05-05T05:58:56.075Z,61.76
2023-05-05T06:00:01.631Z,61.49
2023-05-05T06:01:02.874Z,62.13
2023-05-05T06:02:05.670Z,61.92
2023-05-05T06:03:08.548Z,62.12
2023-05-05T06:04:12.549Z,62.15
2023-05-05T06:05:14.810Z,61.52
2023-05-05T06:06:17.921Z,61.05
2023-05-05T06:07:20.106Z,60.93
2023-05-05T06:08:25.064Z,60.34
2023-05-05T06:09:29.115Z,60.77
2023-05-05T06:10:31.858Z,59.32
2023-05-05T06:11:43.051Z,60.05
2023-05-05T06:12:45.776Z,59.48
2023-05-05T06:13:47.885Z,59.31
2023-05-05T06:14:50.010Z,59.57
2023-05-05T06:15:52.270Z,59.61
2023-05-05T06:16:56.039Z,59.40
2023-05-05T06:17:59.794Z,59.00
2023-05-05T06:19:02.517Z,58.70
2023-05-05T06:20:08.077Z,58.65
2023-05-05T06:21:10.374Z,58.50
2023-05-05T06:22:12.697Z,58.52
2023-05-05T06:23:16.616Z,58.24
2023-05-05T06:24:20.694Z,58.36
2023-05-05T06:25:22.864Z,56.85
2023-05-05T06:26:25.492Z,57.59
2023-05-05T06:27:27.575Z,57.27
2023-05-05T06:28:29.698Z,57.11
2023-05-05T06:29:31.885Z,56.58
2023-05-05T06:30:34.072Z,57.16
2023-05-05T06:31:36.394Z,57.10
2023-05-05T06:32:38.648Z,56.75
2023-05-05T06:33:41.101Z,56.37
2023-05-05T06:34:45.107Z,56.53
2023-05-05T06:35:47.583Z,56.69
2023-05-05T06:36:50.292Z,56.54
2023-05-05T06:37:52.853Z,56.77
2023-05-05T06:38:55.103Z,56.47
2023-05-05T06:39:59.365Z,56.47
2023-05-05T06:41:05.386Z,56.67
2023-05-05T06:42:07.638Z,56.11
2023-05-05T06:43:09.650Z,56.34
2023-05-05T06:44:13.514Z,56.78
2023-05-05T06:45:15.860Z,56.51
2023-05-05T06:46:18.627Z,56.23
2023-05-05T06:47:24.533Z,55.15
2023-05-05T06:48:27.037Z,54.18
2023-05-05T06:49:29.057Z,54.87
2023-05-05T06:50:31.588Z,53.80
2023-05-05T06:51:33.861Z,53.79
2023-05-05T06:52:36.005Z,53.62
2023-05-05T06:53:38.011Z,53.03
2023-05-05T06:54:40.056Z,52.64
2023-05-05T06:55:46.260Z,53.19
2023-05-05T06:56:48.519Z,52.85
2023-05-05T06:57:50.677Z,53.10
2023-05-05T06:58:52.807Z,53.06
2023-05-05T06:59:54.816Z,52.94
2023-05-05T07:00:57.087Z,52.72
2023-05-05T07:01:59.567Z,52.71
2023-05-05T07:03:01.875Z,52.17
2023-05-05T07:04:06.022Z,52.35
2023-05-05T07:05:09.934Z,52.40
2023-05-05T07:06:12.566Z,51.97
2023-05-05T07:07:14.743Z,51.57
2023-05-05T07:08:17.043Z,52.01
2023-05-05T07:09:19.542Z,52.43
2023-05-05T07:10:23.154Z,51.95
2023-05-05T07:11:25.284Z,51.80
2023-05-05T07:12:30.525Z,51.85
2023-05-05T07:13:33.111Z,51.97
2023-05-05T07:14:35.106Z,52.52
2023-05-05T07:15:41.203Z,51.55
2023-05-05T07:16:43.381Z,51.42
2023-05-05T07:17:45.771Z,51.59
2023-05-05T07:18:48.077Z,51.46
2023-05-05T07:19:49.976Z,51.87
2023-05-05T07:20:52.684Z,51.82
2023-05-05T07:21:54.653Z,51.78
2023-05-05T07:22:56.782Z,49.93
2023-05-05T07:23:58.798Z,49.43
2023-05-05T07:25:02.091Z,48.43
2023-05-05T07:26:04.735Z,48.61
2023-05-05T07:27:06.958Z,49.39
2023-05-05T07:28:09.627Z,49.71
2023-05-05T07:29:11.683Z,50.30
2023-05-05T07:30:18.092Z,50.40
2023-05-05T07:31:18.631Z,50.79
2023-05-05T07:32:20.958Z,50.84
2023-05-05T07:33:23.717Z,51.11
2023-05-05T07:34:25.880Z,51.37
2023-05-05T07:35:27.973Z,51.63
2023-05-05T07:36:30.616Z,51.85
2023-05-05T07:37:33.100Z,52.15
2023-05-05T07:38:35.253Z,51.73
2023-05-05T07:39:37.367Z,51.74
2023-05-05T07:40:39.607Z,51.55
2023-05-05T07:41:42.524Z,50.58
2023-05-05T07:42:44.623Z,51.32
2023-05-05T07:43:46.829Z,51.01
2023-05-05T07:44:48.969Z,51.04
2023-05-05T07:45:51.120Z,51.04
2023-05-05T07:46:53.589Z,50.39
2023-05-05T07:47:58.661Z,50.07
2023-05-05T07:49:03.216Z,50.71
2023-05-05T07:50:11.410Z,50.19
2023-05-05T07:51:13.886Z,49.84
2023-05-05T07:52:16.137Z,49.64
2023-05-05T07:53:18.233Z,49.70
2023-05-05T07:54:20.268Z,48.61
2023-05-05T07:55:22.253Z,48.85
2023-05-05T07:56:25.453Z,48.98
2023-05-05T07:57:27.680Z,48.89
2023-05-05T07:58:29.968Z,48.75
2023-05-05T07:59:32.221Z,48.68
2023-05-05T08:00:35.321Z,48.45
2023-05-05T08:01:38.526Z,48.70
2023-05-05T08:02:40.681Z,48.58
2023-05-05T08:03:44.853Z,48.06
2023-05-05T08:04:47.583Z,48.08
2023-05-05T08:05:53.909Z,47.53
2023-05-05T08:06:56.502Z,47.83
2023-05-05T08:07:59.790Z,48.11
2023-05-05T08:09:01.846Z,47.87
2023-05-05T08:10:08.183Z,47.81
2023-05-05T08:11:10.462Z,47.54
2023-05-05T08:12:13.660Z,47.65
2023-05-05T08:13:15.943Z,47.69
2023-05-05T08:14:18.566Z,47.26
2023-05-05T08:15:20.877Z,47.22
2023-05-05T08:16:23.257Z,47.22
2023-05-05T08:17:26.377Z,46.58
2023-05-05T08:18:28.621Z,46.08
2023-05-05T08:19:30.872Z,46.56
2023-05-05T08:20:33.012Z,46.46
2023-05-05T08:21:35.536Z,46.63
2023-05-05T08:22:37.755Z,45.78
2023-05-05T08:23:39.851Z,45.80
2023-05-05T08:24:41.747Z,45.72
2023-05-05T08:25:44.039Z,46.11
2023-05-05T08:26:46.334Z,46.04
2023-05-05T08:27:48.444Z,46.52
2023-05-05T08:28:50.754Z,46.29
2023-05-05T08:29:52.991Z,45.47
2023-05-05T08:30:55.095Z,45.61
2023-05-05T08:31:57.476Z,44.86
2023-05-05T08:33:00.184Z,45.11
2023-05-05T08:34:05.682Z,45.23
2023-05-05T08:35:12.134Z,45.20
2023-05-05T08:36:14.702Z,44.64
2023-05-05T08:37:17.033Z,44.57
2023-05-05T08:38:19.267Z,45.29
2023-05-05T08:39:21.833Z,44.69
2023-05-05T08:40:23.961Z,44.19
2023-05-05T08:41:26.341Z,44.73
2023-05-05T08:42:37.228Z,44.31
2023-05-05T08:43:33.420Z,44.68
2023-05-05T08:44:35.639Z,44.11
2023-05-05T08:45:39.723Z,44.34
2023-05-05T08:46:42.036Z,44.33
2023-05-05T08:47:44.348Z,44.96
2023-05-05T08:48:46.607Z,45.48
2023-05-05T08:49:48.642Z,45.43
2023-05-05T08:51:01.341Z,44.98
2023-05-05T08:52:04.717Z,44.30
2023-05-05T08:53:09.941Z,44.26
2023-05-05T08:54:20.077Z,44.29
2023-05-05T08:55:26.963Z,44.07
2023-05-05T08:56:39.128Z,44.56
2023-05-05T08:57:47.578Z,44.58
2023-05-05T08:58:51.740Z,44.75
2023-05-05T08:59:53.848Z,44.61
2023-05-05T09:00:56.305Z,44.49
2023-05-05T09:01:58.520Z,43.73
2023-05-05T09:03:01.302Z,43.60
2023-05-05T09:04:05.972Z,43.43
2023-05-05T09:05:11.362Z,43.56
2023-05-05T09:06:13.499Z,43.68
2023-05-05T09:07:15.607Z,43.36
2023-05-05T09:08:17.642Z,42.92
2023-05-05T09:09:20.250Z,43.11
2023-05-05T09:10:23.294Z,42.94
2023-05-05T09:11:25.543Z,43.32
2023-05-05T09:12:32.551Z,43.37
2023-05-05T09:13:34.853Z,43.21
2023-05-05T09:14:37.153Z,42.93
2023-05-05T09:15:39.516Z,42.86
2023-05-05T09:16:43.171Z,42.83
2023-05-05T09:17:46.450Z,42.18
2023-05-05T09:18:48.794Z,41.99
2023-05-05T09:20:03.353Z,41.88
2023-05-05T09:21:21.721Z,41.74
2023-05-05T09:24:10.360Z,41.17
2023-05-05T09:26:21.596Z,40.86
2023-05-05T09:27:23.733Z,40.81
2023-05-05T09:28:25.941Z,40.85
2023-05-05T09:29:28.144Z,40.85
2023-05-05T09:30:32.800Z,40.89
2023-05-05T09:31:36.247Z,40.93
2023-05-05T09:32:50.111Z,40.21
2023-05-05T09:33:52.327Z,40.55
2023-05-05T09:36:46.499Z,40.14
2023-05-05T09:37:48.790Z,40.16
2023-05-05T09:39:04.985Z,40.23
2023-05-05T09:40:09.851Z,40.27
2023-05-05T09:41:12.082Z,40.85
2023-05-05T09:42:17.953Z,41.22
2023-05-05T09:43:21.694Z,41.16
2023-05-05T09:44:34.571Z,41.21
2023-05-05T09:45:36.702Z,41.26
2023-05-05T09:46:42.135Z,41.21
2023-05-05T09:47:47.878Z,41.07
2023-05-05T09:48:50.309Z,41.19
2023-05-05T09:49:58.330Z,41.24
2023-05-05T09:51:00.990Z,40.79
2023-05-05T09:52:13.462Z,41.26
2023-05-05T09:53:15.551Z,41.87
2023-05-05T09:54:28.759Z,41.60
2023-05-05T09:55:31.176Z,41.17
2023-05-05T09:56:40.046Z,39.70
2023-05-05T09:57:42.349Z,40.22
2023-05-05T09:58:44.737Z,40.46
2023-05-05T09:59:55.797Z,40.61
2023-05-05T10:00:58.428Z,40.31
2023-05-05T10:03:19.752Z,39.95
2023-05-05T10:04:26.043Z,40.12
2023-05-05T10:05:31.543Z,40.15
2023-05-05T10:06:44.584Z,40.40
2023-05-05T10:07:47.080Z,40.96
2023-05-05T10:08:52.876Z,41.54
2023-05-05T10:09:55.210Z,40.96
2023-05-05T10:11:03.900Z,40.59
2023-05-05T10:12:06.047Z,40.57
2023-05-05T10:13:09.851Z,40.52
2023-05-05T10:15:22.992Z,40.12
2023-05-05T10:16:27.517Z,40.50
2023-05-05T10:17:32.149Z,40.48
2023-05-05T10:18:34.627Z,40.59
2023-05-05T10:19:36.974Z,40.44
2023-05-05T10:20:39.108Z,39.69
2023-05-05T10:21:48.212Z,39.41
2023-05-05T10:22:51.257Z,38.85
2023-05-05T10:25:11.273Z,38.89
2023-05-05T10:26:14.053Z,38.77
2023-05-05T10:27:20.250Z,38.16
2023-05-05T10:29:43.357Z,38.81
2023-05-05T10:30:45.637Z,38.39
2023-05-05T10:31:50.837Z,38.82
2023-05-05T10:33:27.279Z,38.93
2023-05-05T10:34:10.269Z,37.18
2023-05-05T10:36:24.418Z,36.84
2023-05-05T10:37:27.334Z,37.89
2023-05-05T10:38:29.396Z,37.82
2023-05-05T10:39:31.620Z,37.82
2023-05-05T10:40:33.875Z,37.80
2023-05-05T10:41:36.970Z,37.99
2023-05-05T10:42:39.412Z,38.08
2023-05-05T10:43:41.421Z,38.06
2023-05-05T10:45:45.383Z,38.01
2023-05-05T10:46:47.921Z,37.79
2023-05-05T10:47:50.181Z,37.52
2023-05-05T10:49:14.402Z,37.50
2023-05-05T10:50:32.277Z,37.60
2023-05-05T10:51:41.201Z,36.83
2023-05-05T10:53:19.457Z,37.28
2023-05-05T10:56:17.760Z,37.36
2023-05-05T10:57:22.019Z,37.81
2023-05-05T10:58:47.507Z,38.39
2023-05-05T10:59:42.922Z,38.20
2023-05-05T11:00:48.621Z,37.90
2023-05-05T11:01:51.185Z,37.97
2023-05-05T11:02:59.189Z,37.88
2023-05-05T11:04:20.792Z,37.36
2023-05-05T11:05:22.951Z,37.36
2023-05-05T11:06:25.790Z,37.43
2023-05-05T11:07:27.922Z,37.60
2023-05-05T11:08:35.436Z,37.71
2023-05-05T11:09:40.438Z,37.30
2023-05-05T11:10:45.687Z,37.23
2023-05-05T11:12:03.379Z,37.59
2023-05-05T11:13:14.414Z,37.65
2023-05-05T11:14:20.450Z,37.67
2023-05-05T11:15:32.219Z,38.00
2023-05-05T11:17:57.602Z,38.08
2023-05-05T11:18:59.742Z,37.32
2023-05-05T11:20:05.100Z,37.25
2023-05-05T11:22:21.715Z,36.92
2023-05-05T11:23:24.642Z,36.83
2023-05-05T11:24:27.521Z,36.73
2023-05-05T11:25:39.525Z,36.67
2023-05-05T11:26:48.471Z,36.25
2023-05-05T11:28:15.299Z,36.42
2023-05-05T11:29:17.639Z,36.66
2023-05-05T11:30:20.055Z,36.76
2023-05-05T11:31:22.301Z,36.71
2023-05-05T11:32:24.501Z,35.73
2023-05-05T11:33:31.499Z,36.03
2023-05-05T11:34:34.133Z,36.13
2023-05-05T11:37:09.237Z,35.88
2023-05-05T11:38:11.290Z,36.18
2023-05-05T11:39:40.634Z,36.01
2023-05-05T11:40:43.389Z,35.92
2023-05-05T11:43:19.731Z,36.52
2023-05-05T11:45:34.055Z,35.97
2023-05-05T11:46:37.216Z,35.92
2023-05-05T11:47:39.498Z,35.85
2023-05-05T11:48:45.772Z,36.01
2023-05-05T11:49:49.594Z,35.90
2023-05-05T11:50:51.880Z,35.81
2023-05-05T11:52:00.767Z,35.67
2023-05-05T11:53:02.819Z,35.64
2023-05-05T11:54:04.844Z,35.56
2023-05-05T11:55:10.172Z,35.60
2023-05-05T11:56:13.215Z,35.59
2023-05-05T11:58:26.933Z,34.82
2023-05-05T11:59:28.983Z,34.64
2023-05-05T12:00:32.597Z,34.50
2023-05-05T12:01:37.168Z,34.46
2023-05-05T12:02:39.382Z,34.13
2023-05-05T12:03:41.917Z,34.09
2023-05-05T12:04:44.809Z,33.95
2023-05-05T12:05:46.873Z,34.25
2023-05-05T12:06:49.355Z,34.49
2023-05-05T12:07:55.283Z,34.51
2023-05-05T12:08:57.354Z,34.26
2023-05-05T12:09:59.648Z,34.00
2023-05-05T12:11:08.940Z,33.99
2023-05-05T12:12:12.090Z,33.81
2023-05-05T12:13:18.832Z,33.96
2023-05-05T12:14:23.435Z,34.17
2023-05-05T12:15:29.781Z,34.34
2023-05-05T12:16:32.434Z,33.99
2023-05-05T12:17:40.222Z,33.63
2023-05-05T12:18:42.642Z,33.54
2023-05-05T12:19:49.801Z,34.04
2023-05-05T12:20:52.456Z,33.53
2023-05-05T12:21:54.542Z,34.27
2023-05-05T12:28:18.048Z,34.01
2023-05-05T12:30:58.061Z,33.15
2023-05-05T12:32:01.250Z,32.24
2023-05-05T12:33:07.498Z,32.98
2023-05-05T12:34:10.872Z,33.10
2023-05-05T12:35:13.268Z,33.15
2023-05-05T12:36:15.884Z,33.27
2023-05-05T12:37:18.196Z,33.28
2023-05-05T12:38:20.325Z,33.12
2023-05-05T12:39:22.392Z,32.87
2023-05-05T12:42:16.380Z,32.25
2023-05-05T12:43:30.948Z,33.35
2023-05-05T12:44:37.190Z,32.79
2023-05-05T12:45:39.805Z,32.49
2023-05-05T12:46:47.851Z,32.71
2023-05-05T12:47:50.060Z,32.71
2023-05-05T12:49:05.864Z,33.12
2023-05-05T12:50:11.304Z,32.81
2023-05-05T12:51:17.388Z,33.02
2023-05-05T12:52:19.852Z,32.77
2023-05-05T12:54:32.489Z,31.93
2023-05-05T12:55:37.365Z,32.85
2023-05-05T12:56:45.732Z,33.03
2023-05-05T12:59:11.844Z,32.86
2023-05-05T13:00:19.741Z,33.57
2023-05-05T13:01:22.854Z,32.40
2023-05-05T13:04:11.459Z,33.49
2023-05-05T13:05:13.569Z,33.21
2023-05-05T13:06:22.101Z,33.14
2023-05-05T13:07:24.161Z,33.52
2023-05-05T13:08:42.413Z,33.47
2023-05-05T13:09:45.640Z,33.20
2023-05-05T13:10:57.334Z,33.26
2023-05-05T13:11:59.621Z,33.29
2023-05-05T13:13:01.924Z,33.49
2023-05-05T13:15:14.590Z,33.33
2023-05-05T13:16:19.474Z,33.13
2023-05-05T13:17:21.816Z,33.15
2023-05-05T13:18:24.105Z,32.77
2023-05-05T13:19:26.331Z,33.04
2023-05-05T13:20:29.600Z,33.08
2023-05-05T13:21:31.914Z,33.14
2023-05-05T13:22:33.969Z,33.31
2023-05-05T13:23:35.946Z,33.83
2023-05-05T13:24:50.545Z,33.57
2023-05-05T13:25:42.163Z,33.65
2023-05-05T13:26:44.826Z,33.24
2023-05-05T13:27:47.077Z,32.38
2023-05-05T13:28:49.296Z,33.63
2023-05-05T13:29:51.639Z,32.74
2023-05-05T13:30:54.895Z,32.25
2023-05-05T13:31:57.194Z,32.56
2023-05-05T13:32:59.317Z,32.48
2023-05-05T13:34:01.669Z,32.53
2023-05-05T13:35:07.831Z,33.19
2023-05-05T13:36:11.501Z,32.88
2023-05-05T13:37:16.005Z,32.55
2023-05-05T13:38:18.231Z,32.83
2023-05-05T13:39:20.470Z,33.00
2023-05-05T13:40:26.122Z,33.46
2023-05-05T13:41:28.313Z,33.60
2023-05-05T13:42:30.418Z,33.61
2023-05-05T13:43:32.578Z,33.98
2023-05-05T13:44:34.694Z,33.74
2023-05-05T13:45:36.704Z,33.95
2023-05-05T13:46:41.318Z,33.04
2023-05-05T13:47:43.791Z,32.35
2023-05-05T13:48:46.079Z,31.83
2023-05-05T13:49:49.036Z,32.80
2023-05-05T13:50:51.535Z,32.90
2023-05-05T13:51:53.668Z,33.41
2023-05-05T13:52:55.860Z,33.04
2023-05-05T13:53:57.926Z,32.79
2023-05-05T13:55:00.138Z,33.07
2023-05-05T13:56:03.359Z,32.92
2023-05-05T13:57:05.409Z,32.49
2023-05-05T13:58:07.670Z,32.74
2023-05-05T13:59:09.996Z,32.37
2023-05-05T14:00:16.566Z,32.17
2023-05-05T14:01:18.858Z,32.39
2023-05-05T14:02:21.510Z,31.97
2023-05-05T14:04:45.573Z,32.36
2023-05-05T14:05:48.096Z,32.54
2023-05-05T14:06:50.803Z,32.66
2023-05-05T14:07:57.426Z,32.58
2023-05-05T14:08:59.704Z,32.83
2023-05-05T14:10:02.360Z,32.99
2023-05-05T14:11:05.085Z,33.12
2023-05-05T14:12:07.498Z,33.40
2023-05-05T14:13:10.109Z,33.26
2023-05-05T14:14:12.199Z,33.28
2023-05-05T14:15:14.650Z,33.54
2023-05-05T14:16:17.668Z,33.13
2023-05-05T14:17:20.441Z,33.18
2023-05-05T14:18:22.574Z,32.94
2023-05-05T14:19:24.878Z,32.83
2023-05-05T14:20:28.410Z,32.87
2023-05-05T14:21:30.626Z,32.96
2023-05-05T14:22:32.881Z,33.11
2023-05-05T14:23:35.171Z,32.78
2023-05-05T14:24:37.297Z,32.29
2023-05-05T14:25:39.676Z,32.26
2023-05-05T14:26:42.037Z,31.94
2023-05-05T14:27:44.352Z,31.99
2023-05-05T14:28:48.986Z,32.11
2023-05-05T14:29:50.810Z,30.58
2023-05-05T14:30:56.220Z,30.44
2023-05-05T14:31:58.611Z,31.01
2023-05-05T14:33:01.210Z,31.27
2023-05-05T14:34:03.782Z,30.85
2023-05-05T14:35:08.726Z,31.90
2023-05-05T14:36:11.622Z,31.92
2023-05-05T14:37:13.725Z,31.32